Latest Weather Observations for Ballina

IDN60801

Issued at 11:33 pm EST Monday 27 April 2015 (issued every 30 minutes, with the page automatically refreshed every 10 minutes)

About weather observations | Map of weather stations | Latest weather observations for NSW | Other Formats
Station Details ID: 058198 Name: BALLINA AIRPORT AWS Lat: -28.84 Lon: 153.56 Height: 1.3 m
Data from the previous 72 hours. | See also: Recent months at Ballina
Date/Time
EST
Temp
°C
App
Temp
°C
Dew
Point
Rel
Hum
%
Delta-T
°C
Wind Press
QNH
hPa
Press
MSL
hPa
Rain
since 9 am
mm
Dir
 
Spd
km/h
Gust
km/h
Spd
kts
Gust
kts
27/11:30pm 14.3 13.7 12.3 88 1.1 W 7 9 4 5 1020.2 1020.2 0.0
27/11:00pm 13.8 14.6 12.5 92 0.7 CALM 0 0 0 0 1020.2 1020.2 0.0
27/10:30pm 13.7 14.5 12.4 92 0.7 CALM 0 0 0 0 1020.1 1020.1 0.0
27/10:00pm 13.8 13.5 12.7 93 0.6 W 6 9 3 5 1020.0 1020.0 0.0
27/09:30pm 13.7 13.1 12.3 91 0.8 W 7 9 4 5 1019.9 1019.9 0.0
27/09:00pm 14.1 13.7 12.3 89 1.0 WNW 6 7 3 4 1019.7 1019.7 0.0
27/08:30pm 15.4 15.2 12.9 85 1.4 W 6 9 3 5 1019.5 1019.5 0.0
27/08:00pm 17.5 16.1 12.2 71 2.9 SSE 11 15 6 8 1019.2 1019.2 0.0
27/07:30pm 18.0 16.6 12.2 69 3.2 SSE 11 15 6 8 1018.8 1018.8 0.0
27/07:00pm 17.5 15.9 11.5 68 3.3 SSE 11 13 6 7 1018.6 1018.6 0.0
27/06:30pm 18.2 17.2 12.2 68 3.3 SSE 9 17 5 9 1018.3 1018.3 0.0
27/06:00pm 18.5 17.2 12.5 68 3.3 SSE 11 15 6 8 1017.8 1017.8 0.0
27/05:30pm 19.0 17.2 12.0 64 3.9 SSE 13 19 7 10 1017.4 1017.4 0.0
27/05:00pm 19.9 18.0 11.9 60 4.4 SSE 13 19 7 10 1017.2 1017.2 0.0
27/04:30pm 20.8 18.3 11.2 54 5.3 S 15 20 8 11 1017.0 1017.0 0.0
27/04:00pm 21.2 19.0 12.1 56 5.1 S 15 22 8 12 1016.9 1016.9 0.0
27/03:30pm 21.5 18.8 11.8 54 5.4 S 17 24 9 13 1016.8 1016.8 0.0
27/03:00pm 21.4 18.2 11.1 52 5.7 SSE 19 24 10 13 1016.6 1016.6 0.0
27/02:30pm 21.6 18.5 11.6 53 5.6 S 19 28 10 15 1016.6 1016.6 0.0
27/02:00pm 21.6 18.3 11.6 53 5.6 S 20 33 11 18 1016.5 1016.5 0.0
27/01:30pm 21.7 18.3 11.4 52 5.7 S 20 28 11 15 1016.5 1016.5 0.0
27/01:00pm 21.3 17.6 10.2 49 6.0 S 20 28 11 15 1016.7 1016.7 0.0
27/12:30pm 21.5 17.8 10.3 49 6.1 S 20 28 11 15 1016.8 1016.8 0.0
27/12:00pm 21.8 18.1 10.3 48 6.3 S 20 28 11 15 1017.2 1017.2 0.0
27/11:30am 21.7 18.0 9.6 46 6.5 SW 19 26 10 14 1017.4 1017.4 0.0
27/11:00am 21.6 18.0 9.8 47 6.4 SSW 19 26 10 14 1017.8 1017.8 0.0
27/10:30am 21.3 17.6 10.2 49 6.0 SSW 20 26 11 14 1018.0 1018.0 0.0
27/10:00am 21.0 17.1 8.6 45 6.5 SW 19 26 10 14 1018.0 1018.0 0.0
27/09:30am 21.2 17.7 8.8 45 6.5 SW 17 22 9 12 1018.0 1018.0 0.0
27/09:00am 20.1 16.3 9.1 49 5.8 WSW 19 24 10 13 1017.9 1017.9 0.0
27/08:30am 19.0 16.0 9.2 53 5.1 W 15 20 8 11 1017.7 1017.7 0.0
27/08:00am 17.9 15.2 9.0 56 4.6 W 13 17 7 9 1017.4 1017.4 0.0
27/07:30am 16.1 13.2 8.1 59 4.0 WNW 13 17 7 9 1017.0 1017.0 0.0
27/07:00am 13.8 11.4 8.8 72 2.5 W 11 13 6 7 1016.8 1016.8 0.0
27/06:30am 12.1 9.9 7.8 75 2.1 WNW 9 13 5 7 1016.3 1016.3 0.0
27/06:00am 12.1 9.8 7.4 73 2.3 W 9 13 5 7 1015.9 1015.9 0.0
27/05:30am 12.3 9.6 7.4 72 2.4 WNW 11 13 6 7 1015.6 1015.6 0.0
27/05:00am 12.2 10.4 7.3 72 2.4 W 6 7 3 4 1015.2 1015.2 0.0
27/04:30am 11.9 8.8 7.4 74 2.2 W 13 15 7 8 1014.7 1014.7 0.0
27/04:00am 12.5 10.2 7.4 71 2.5 WNW 9 11 5 6 1014.5 1014.5 0.0
27/03:30am 12.9 9.8 7.4 69 2.7 W 13 17 7 9 1014.4 1014.4 0.0
27/03:00am 13.1 9.6 7.3 68 2.8 WSW 15 19 8 10 1014.4 1014.4 0.0
27/02:30am 13.4 9.9 7.2 66 3.0 WSW 15 20 8 11 1014.6 1014.6 0.0
27/02:00am 14.2 11.8 7.0 62 3.5 WSW 9 17 5 9 1014.6 1014.6 0.0
27/01:30am 14.5 10.6 7.1 61 3.6 W 17 20 9 11 1014.7 1014.7 0.0
27/01:00am 14.4 11.2 7.0 61 3.6 WSW 13 17 7 9 1014.8 1014.8 0.0
27/12:30am 15.5 9.9 7.0 57 4.2 W 26 39 14 21 1014.5 1014.5 0.0
27/12:00am 15.6 11.1 7.1 57 4.2 W 20 32 11 17 1014.5 1014.5 0.0
 
Date/Time
EST
Temp
°C
App
Temp
°C
Dew
Point
Rel
Hum
%
Delta-T
°C
Wind Press
QNH
hPa
Press
MSL
hPa
Rain
since 9 am
mm
Dir
 
Spd
km/h
Gust
km/h
Spd
kts
Gust
kts
26/11:30pm 15.7 10.9 7.2 57 4.2 W 22 30 12 16 1014.9 1014.9 0.0
26/11:00pm 14.0 10.1 7.3 64 3.3 W 17 22 9 12 1015.2 1015.2 0.0
26/10:30pm 14.9 10.6 7.0 59 3.9 W 19 26 10 14 1015.2 1015.2 0.0
26/10:00pm 15.3 11.4 7.3 59 3.9 WNW 17 22 9 12 1015.1 1015.1 0.0
26/09:30pm 14.1 10.5 6.9 62 3.5 W 15 22 8 12 1015.1 1015.1 0.0
26/09:00pm 15.1 12.0 7.2 59 3.9 WNW 13 20 7 11 1014.8 1014.8 0.0
26/08:30pm 15.9 12.1 7.4 57 4.2 W 17 24 9 13 1014.5 1014.5 0.0
26/08:00pm 15.9 12.1 7.4 57 4.2 W 17 26 9 14 1014.3 1014.3 0.0
26/07:30pm 15.6 11.3 7.9 60 3.9 W 20 26 11 14 1013.7 1013.7 0.0
26/07:00pm 15.6 12.5 7.4 58 4.1 W 13 19 7 10 1013.2 1013.2 0.0
26/06:30pm 15.8 12.3 7.3 57 4.2 W 15 17 8 9 1012.5 1012.5 0.0
26/06:00pm 16.3 12.1 7.5 56 4.4 W 19 24 10 13 1011.9 1011.9 0.0
26/05:30pm 17.6 13.6 6.8 49 5.4 W 17 24 9 13 1011.4 1011.4 0.0
26/05:00pm 19.3 14.1 7.1 45 6.2 W 24 30 13 16 1011.0 1011.0 0.0
26/04:30pm 20.3 14.7 7.0 42 6.8 W 26 33 14 18 1010.6 1010.6 0.0
26/04:00pm 21.1 15.6 5.9 37 7.6 W 24 37 13 20 1010.5 1010.5 0.0
26/03:30pm 21.5 15.6 5.8 36 7.9 W 26 37 14 20 1010.0 1010.0 0.0
26/03:00pm 21.7 14.7 6.0 36 7.9 W 32 44 17 24 1009.4 1009.4 0.0
26/02:30pm 21.7 14.4 5.6 35 8.0 W 33 46 18 25 1009.2 1009.2 0.0
26/02:00pm 21.9 14.6 5.3 34 8.3 W 33 44 18 24 1009.2 1009.2 0.0
26/01:30pm 21.9 14.7 5.8 35 8.1 W 33 43 18 23 1008.9 1008.9 0.0
26/01:00pm 21.6 14.6 5.9 36 7.9 W 32 50 17 27 1008.6 1008.6 0.0
26/12:57pm 21.8 14.8 6.1 36 7.9 W 32 50 17 27 1008.7 1008.7 0.0
26/12:30pm 21.5 13.3 4.6 33 8.3 WSW 37 48 20 26 1009.1 1009.1 0.0
26/12:06pm 21.5 13.1 5.4 35 8.0 WSW 39 57 21 31 1009.1 1009.1 0.0
26/12:00pm 21.2 12.2 4.3 33 8.2 W 41 56 22 30 1009.0 1009.0 0.0
26/11:40am 21.4 12.7 4.0 32 8.4 WSW 39 57 21 31 1009.4 1009.4 0.0
26/11:30am 21.3 12.7 4.4 33 8.2 WSW 39 54 21 29 1009.4 1009.4 0.0
26/11:12am 20.9 12.0 4.9 35 7.8 W 41 59 22 32 1009.3 1009.3 0.0
26/11:00am 20.7 12.0 3.9 33 8.1 W 39 54 21 29 1009.3 1009.3 0.0
26/10:39am 20.4 12.1 4.4 35 7.7 W 37 61 20 33 1009.3 1009.3 0.0
26/10:30am 20.6 12.8 5.0 36 7.6 W 35 52 19 28 1009.4 1009.4 0.0
26/10:05am 19.8 11.9 4.3 36 7.4 WNW 35 54 19 29 1008.9 1008.9 0.0
26/10:00am 20.3 12.5 5.1 37 7.5 W 35 50 19 27 1009.2 1009.2 0.0
26/09:30am 19.5 12.6 4.4 37 7.2 WNW 30 44 16 24 1009.6 1009.6 0.0
26/09:04am 19.3 12.2 5.7 41 6.7 W 32 50 17 27 1009.9 1009.9 0.0
26/09:00am 19.2 11.5 5.3 40 6.8 W 35 50 19 27 1009.9 1009.9 0.0
26/08:30am 18.8 12.5 5.6 42 6.5 W 28 41 15 22 1010.3 1010.3 0.0
26/08:00am 18.3 10.5 4.8 41 6.5 W 35 56 19 30 1010.2 1010.2 0.0
26/07:30am 18.1 11.6 4.7 41 6.4 W 28 35 15 19 1010.3 1010.3 0.0
26/07:14am 17.9 11.5 5.2 43 6.1 W 28 46 15 25 1010.0 1010.0 0.0
26/07:00am 17.6 11.6 5.2 44 6.0 WNW 26 33 14 18 1009.8 1009.8 0.0
26/06:30am 16.8 11.6 5.4 47 5.5 W 22 32 12 17 1009.6 1009.6 0.0
26/06:00am 16.6 10.8 4.6 45 5.7 W 24 35 13 19 1009.3 1009.3 0.0
26/05:50am 17.3 10.8 4.9 44 5.9 W 28 44 15 24 1009.1 1009.1 0.0
26/05:30am 16.9 13.1 5.8 48 5.4 WNW 15 24 8 13 1008.9 1008.9 0.0
26/05:00am 17.0 12.6 6.5 50 5.2 WNW 19 24 10 13 1008.5 1008.5 0.0
26/04:30am 17.8 13.5 7.0 49 5.4 WNW 19 24 10 13 1008.3 1008.3 0.0
26/04:00am 18.4 13.9 6.9 47 5.8 WNW 20 28 11 15 1008.0 1008.0 0.0
26/03:30am 19.0 13.8 7.4 47 5.9 WNW 24 35 13 19 1007.7 1007.7 0.0
26/03:00am 18.6 13.8 7.4 48 5.7 W 22 30 12 16 1007.4 1007.4 0.0
26/02:30am 19.0 14.8 8.1 49 5.6 W 20 30 11 16 1007.3 1007.3 0.0
26/02:00am 17.6 14.3 9.5 59 4.3 W 17 20 9 11 1007.4 1007.4 0.0
26/01:30am 18.6 15.1 10.9 61 4.2 WNW 20 24 11 13 1007.4 1007.4 0.0
26/01:00am 18.8 16.0 11.4 62 4.1 WNW 17 22 9 12 1007.6 1007.6 0.0
26/12:30am 18.1 16.0 12.3 69 3.2 WNW 15 17 8 9 1007.8 1007.8 0.0
26/12:00am 13.7 13.7 12.4 92 0.7 N 4 7 2 4 1008.0 1008.0 0.0
 
Date/Time
EST
Temp
°C
App
Temp
°C
Dew
Point
Rel
Hum
%
Delta-T
°C
Wind Press
QNH
hPa
Press
MSL
hPa
Rain
since 9 am
mm
Dir
 
Spd
km/h
Gust
km/h
Spd
kts
Gust
kts
25/11:30pm 14.1 14.9 12.7 91 0.8 CALM 0 0 0 0 1008.4 1008.4 0.0
25/11:00pm 14.8 14.7 13.2 90 0.9 NNW 6 9 3 5 1008.5 1008.5 0.0
25/10:30pm 15.5 15.6 13.9 90 0.9 NNW 6 50 3 27 1008.6 1008.6 0.0
25/10:00pm 15.6 15.7 13.8 89 1.0 N 6 7 3 4 1008.6 1008.6 0.0
25/09:30pm 16.0 17.4 14.5 91 0.9 CALM 0 0 0 0 1008.8 1008.8 0.0
25/09:00pm 16.2 17.7 14.7 91 0.9 CALM 0 0 0 0 1008.7 1008.7 0.0
25/08:30pm 16.1 17.4 14.1 88 1.1 CALM 0 0 0 0 1008.7 1008.7 0.0
25/08:00pm 16.7 18.1 14.3 86 1.4 CALM 0 0 0 0 1008.8 1008.8 0.0
25/07:30pm 17.3 18.7 14.4 83 1.7 CALM 0 0 0 0 1008.5 1008.5 0.0
25/07:00pm 18.1 19.4 14.0 77 2.3 CALM 0 0 0 0 1008.3 1008.3 0.0
25/06:30pm 19.2 19.7 14.0 72 3.0 NW 4 6 2 3 1008.1 1008.1 0.0
25/06:00pm 20.0 19.6 13.0 64 4.0 NNE 7 9 4 5 1007.8 1007.8 0.0
25/05:30pm 22.0 21.2 12.8 56 5.2 NE 9 13 5 7 1007.6 1007.6 0.0
25/05:00pm 23.4 22.2 12.7 51 6.1 NNE 11 15 6 8 1007.4 1007.4 0.0
25/04:30pm 24.8 22.2 12.1 45 7.2 NE 17 22 9 12 1007.3 1007.3 0.0
25/04:00pm 25.8 23.2 11.9 42 8.0 NE 17 22 9 12 1007.1 1007.1 0.0
25/03:30pm 27.1 25.0 9.9 34 9.6 N 11 15 6 8 1007.1 1007.1 0.0
25/03:00pm 27.6 25.2 8.5 30 10.4 NW 11 17 6 9 1007.1 1007.1 0.0
25/02:30pm 27.5 24.3 8.4 30 10.4 WNW 15 20 8 11 1007.1 1007.1 0.0
25/02:00pm 27.6 24.9 7.5 28 10.8 NW 11 17 6 9 1007.2 1007.2 0.0
25/01:30pm 27.1 24.2 8.0 30 10.3 WSW 13 22 7 12 1007.5 1007.5 0.0
25/01:00pm 27.2 24.4 8.6 31 10.1 W 13 24 7 13 1007.9 1007.9 0.0
25/12:30pm 27.3 24.9 8.7 31 10.1 W 11 24 6 13 1008.0 1008.0 0.0
25/12:00pm 27.2 24.8 8.6 31 10.1 WNW 11 20 6 11 1008.4 1008.4 0.0
25/11:30am 26.7 24.2 8.2 31 10.0 WNW 11 20 6 11 1008.9 1008.9 0.0
25/11:00am 26.1 23.7 9.9 36 9.0 WNW 13 17 7 9 1009.4 1009.4 0.0
25/10:30am 25.9 22.9 10.5 38 8.6 WNW 17 22 9 12 1009.8 1009.8 0.0
25/10:00am 25.2 23.7 13.1 47 7.0 WNW 13 17 7 9 1010.1 1010.1 0.0
25/09:30am 24.9 22.2 11.8 44 7.4 WNW 17 22 9 12 1010.3 1010.3 0.0
25/09:00am 24.6 23.1 11.9 45 7.2 NW 11 15 6 8 1010.4 1010.4 0.0
25/08:30am 23.3 21.6 12.3 50 6.3 WNW 13 17 7 9 1010.2 1010.2 0.0
25/08:00am 21.4 21.0 13.1 59 4.7 WNW 7 11 4 6 1010.2 1010.2 0.0
25/07:30am 18.4 19.8 15.5 83 1.7 NW 2 6 1 3 1010.0 1010.0 0.0
25/07:00am 16.6 17.9 14.2 86 1.4 CALM 0 2 0 1 1009.9 1009.9 0.0
25/06:30am 15.4 15.6 11.8 79 1.9 NW 2 7 1 4 1009.5 1009.5 0.0
25/06:00am 16.5 15.8 12.1 75 2.4 WNW 7 9 4 5 1009.2 1009.2 0.0
25/05:30am 16.2 15.2 12.4 78 2.1 WNW 9 11 5 6 1009.0 1009.0 0.0
25/05:00am 13.9 13.6 13.3 96 0.3 WNW 7 11 4 6 1008.8 1008.8 0.0
25/04:30am 13.8 14.8 13.2 96 0.3 CALM 0 0 0 0 1008.5 1008.5 0.0
25/04:00am 14.6 15.9 14.0 96 0.3 CALM 0 0 0 0 1008.4 1008.4 0.0
25/03:30am 14.3 15.5 13.7 96 0.3 CALM 0 0 0 0 1008.4 1008.4 0.0
25/03:00am 14.4 15.2 13.6 95 0.4 NNE 2 6 1 3 1008.5 1008.5 0.0
25/02:30am 14.6 15.0 13.8 95 0.4 NNE 4 7 2 4 1008.5 1008.5 0.0
25/02:00am 14.9 16.2 14.1 95 0.5 CALM 0 0 0 0 1008.6 1008.6 0.0
25/01:30am 14.7 14.7 13.7 94 0.6 NNE 6 7 3 4 1008.8 1008.8 0.0
25/01:00am 15.4 16.8 14.4 94 0.6 CALM 0 0 0 0 1008.8 1008.8 0.0
25/12:30am 15.9 17.3 14.4 91 0.9 CALM 0 0 0 0 1008.9 1008.9 0.0
25/12:00am 16.4 16.7 14.4 88 1.1 NNW 6 7 3 4 1009.0 1009.0 0.0

Other Formats:

Comma delimited format used in spreadsheet applications
http://www.bom.gov.au/fwo/IDN60801/IDN60801.94596.axf

JavaScript Object Notation format (JSON) in row-major order
http://www.bom.gov.au/fwo/IDN60801/IDN60801.94596.json